createdAt,value
2017-09-06T00:02:01.120Z,3.17
2017-09-06T00:04:28.638Z,2.20
2017-09-06T00:06:56.064Z,2.43
2017-09-06T00:09:23.551Z,2.10
2017-09-06T00:11:51.016Z,1.90
2017-09-06T00:14:18.471Z,1.80
2017-09-06T00:16:45.924Z,2.10
2017-09-06T00:19:14.246Z,2.50
2017-09-06T00:21:41.669Z,1.90
2017-09-06T00:24:09.129Z,2.87
2017-09-06T00:26:36.569Z,2.63
2017-09-06T00:29:04.000Z,1.90
2017-09-06T00:31:31.586Z,2.10
2017-09-06T00:33:59.034Z,2.17
2017-09-06T00:36:26.453Z,2.50
2017-09-06T00:38:53.955Z,2.00
2017-09-06T00:41:21.414Z,2.60
2017-09-06T00:43:48.836Z,2.30
2017-09-06T00:46:16.325Z,2.37
2017-09-06T00:48:43.778Z,2.33
2017-09-06T00:51:11.235Z,2.43
2017-09-06T00:53:38.660Z,2.23
2017-09-06T00:56:06.480Z,1.93
2017-09-06T00:58:34.211Z,1.90
2017-09-06T01:01:01.644Z,2.57
2017-09-06T01:03:29.126Z,2.30
2017-09-06T01:05:56.544Z,2.03
2017-09-06T01:08:23.961Z,1.87
2017-09-06T01:10:51.496Z,2.20
2017-09-06T01:13:18.916Z,1.93
2017-09-06T01:15:46.347Z,2.00
2017-09-06T01:18:13.769Z,2.00
2017-09-06T01:20:41.197Z,1.80
2017-09-06T01:23:08.792Z,2.20
2017-09-06T01:25:36.240Z,2.00
2017-09-06T01:28:03.692Z,1.63
2017-09-06T01:30:31.120Z,1.73
2017-09-06T01:32:58.539Z,1.80
2017-09-06T01:35:25.964Z,2.17
2017-09-06T01:37:53.520Z,2.23
2017-09-06T01:40:21.275Z,2.10
2017-09-06T01:42:48.733Z,1.80
2017-09-06T01:45:16.193Z,2.30
2017-09-06T01:47:43.608Z,2.17
2017-09-06T01:50:11.097Z,2.17
2017-09-06T01:52:38.549Z,2.70
2017-09-06T01:55:05.956Z,2.43
2017-09-06T01:57:33.468Z,2.77
2017-09-06T02:00:00.923Z,2.17
2017-09-06T02:02:28.385Z,2.00
2017-09-06T02:04:55.840Z,2.07
2017-09-06T02:07:23.259Z,2.30
2017-09-06T02:09:50.749Z,1.70
2017-09-06T02:12:18.205Z,2.00
2017-09-06T02:14:45.662Z,2.13
2017-09-06T02:17:13.088Z,2.20
2017-09-06T02:19:40.585Z,2.10
2017-09-06T02:22:08.033Z,2.17
2017-09-06T02:24:35.448Z,1.97
2017-09-06T02:27:02.886Z,2.20
2017-09-06T02:29:30.409Z,1.77
2017-09-06T02:31:57.832Z,2.00
2017-09-06T02:34:25.320Z,1.90
2017-09-06T02:36:52.774Z,2.00
2017-09-06T02:39:20.197Z,2.43
2017-09-06T02:41:47.688Z,1.83
2017-09-06T02:44:15.136Z,2.90
2017-09-06T02:46:42.564Z,2.17
2017-09-06T02:49:10.079Z,2.13
2017-09-06T02:51:37.816Z,2.50
2017-09-06T02:54:05.272Z,3.83
2017-09-06T02:56:32.704Z,2.27
2017-09-06T02:59:00.188Z,2.10
2017-09-06T03:01:27.603Z,2.00
2017-09-06T03:03:55.094Z,1.93
2017-09-06T03:06:22.550Z,2.40
2017-09-06T03:08:49.976Z,2.60
2017-09-06T03:11:17.462Z,2.43
2017-09-06T03:13:44.884Z,2.53
2017-09-06T03:16:12.307Z,2.53
2017-09-06T03:18:39.762Z,2.47
2017-09-06T03:21:07.285Z,2.47
2017-09-06T03:23:34.744Z,2.80
2017-09-06T03:26:02.199Z,2.90
2017-09-06T03:28:29.623Z,2.33
2017-09-06T03:30:57.090Z,2.83
2017-09-06T03:33:24.572Z,2.10
2017-09-06T03:35:52.037Z,2.47
2017-09-06T03:38:19.493Z,2.67
2017-09-06T03:40:47.132Z,2.80
2017-09-06T03:43:14.709Z,2.60
2017-09-06T03:45:42.124Z,2.27
2017-09-06T03:48:09.628Z,2.60
2017-09-06T03:50:37.076Z,2.27
2017-09-06T03:53:05.448Z,2.50
2017-09-06T03:55:32.929Z,2.73
2017-09-06T03:58:00.357Z,3.07
2017-09-06T04:00:27.824Z,2.50
2017-09-06T04:02:55.244Z,2.30
2017-09-06T04:05:22.729Z,2.90
2017-09-06T04:07:50.145Z,2.60
2017-09-06T04:10:17.645Z,2.43
2017-09-06T04:12:45.063Z,2.53
2017-09-06T04:15:12.494Z,3.07
2017-09-06T04:17:39.913Z,2.57
2017-09-06T04:20:07.376Z,2.53
2017-09-06T04:22:34.829Z,2.77
2017-09-06T04:25:02.385Z,2.40
2017-09-06T04:27:29.835Z,2.40
2017-09-06T04:29:57.260Z,2.63
2017-09-06T04:32:24.753Z,2.90
2017-09-06T04:34:52.209Z,3.20
2017-09-06T04:37:19.624Z,2.80
2017-09-06T04:39:47.068Z,3.37
2017-09-06T04:42:14.577Z,2.80
2017-09-06T04:44:42.025Z,3.73
2017-09-06T04:47:09.444Z,3.37
2017-09-06T04:49:36.946Z,3.30
2017-09-06T04:52:04.397Z,3.47
2017-09-06T04:54:32.120Z,3.50
2017-09-06T04:56:59.534Z,3.37
2017-09-06T04:59:26.998Z,3.60
2017-09-06T05:01:54.532Z,3.83
2017-09-06T05:04:21.956Z,4.23
2017-09-06T05:06:49.385Z,4.20
2017-09-06T05:09:16.817Z,4.30
2017-09-06T05:11:44.359Z,4.10
2017-09-06T05:14:11.812Z,5.90
2017-09-06T05:16:39.241Z,4.00
2017-09-06T05:19:06.713Z,4.23
2017-09-06T05:21:34.141Z,3.97
2017-09-06T05:24:01.653Z,5.27
2017-09-06T05:26:29.089Z,4.40
2017-09-06T05:28:56.506Z,4.50
2017-09-06T05:31:23.937Z,4.07
2017-09-06T05:33:51.389Z,4.67
2017-09-06T05:36:18.814Z,4.33
2017-09-06T05:38:46.236Z,4.83
2017-09-06T05:41:13.664Z,5.10
2017-09-06T05:43:41.087Z,4.00
2017-09-06T05:46:08.539Z,4.30
2017-09-06T05:48:36.204Z,3.83
2017-09-06T05:51:03.640Z,3.77
2017-09-06T05:53:31.121Z,3.67
2017-09-06T05:55:58.544Z,4.60
2017-09-06T05:58:26.037Z,3.47
2017-09-06T06:00:53.793Z,5.07
2017-09-06T06:03:21.220Z,3.67
2017-09-06T06:05:48.684Z,3.40
2017-09-06T06:08:16.169Z,4.37
2017-09-06T06:10:43.620Z,4.00
2017-09-06T06:13:11.380Z,4.10
2017-09-06T06:15:38.800Z,4.20
2017-09-06T06:18:06.225Z,4.00
2017-09-06T06:20:33.644Z,3.87
2017-09-06T06:23:01.212Z,4.50
2017-09-06T06:25:28.629Z,4.07
2017-09-06T06:27:56.066Z,3.97
2017-09-06T06:30:23.579Z,3.17
2017-09-06T06:32:51.009Z,4.30
2017-09-06T06:35:18.430Z,3.43
2017-09-06T06:37:45.944Z,3.40
2017-09-06T06:40:13.401Z,3.70
2017-09-06T06:42:40.833Z,3.63
2017-09-06T06:45:08.309Z,3.80
2017-09-06T06:47:35.771Z,3.93
2017-09-06T06:50:03.222Z,3.77
2017-09-06T06:52:30.670Z,3.77
2017-09-06T06:54:58.102Z,3.60
2017-09-06T06:57:25.533Z,4.77
2017-09-06T06:59:53.047Z,3.60
2017-09-06T07:02:20.504Z,3.50
2017-09-06T07:04:47.965Z,4.07
2017-09-06T07:07:15.392Z,4.47
2017-09-06T07:09:42.826Z,4.20
2017-09-06T07:12:10.327Z,4.10
2017-09-06T07:14:37.762Z,4.03
2017-09-06T07:17:05.192Z,3.80
2017-09-06T07:19:32.616Z,4.27
2017-09-06T07:22:00.165Z,3.63
2017-09-06T07:24:27.589Z,3.40
2017-09-06T07:26:55.069Z,3.60
2017-09-06T07:29:22.528Z,2.77
2017-09-06T07:31:49.943Z,3.53
2017-09-06T07:34:17.381Z,3.90
2017-09-06T07:36:44.808Z,3.33
2017-09-06T07:39:12.269Z,2.60
2017-09-06T07:41:39.812Z,3.20
2017-09-06T07:44:07.564Z,3.33
2017-09-06T07:46:35.027Z,2.77
2017-09-06T07:49:02.477Z,2.30
2017-09-06T07:51:29.895Z,3.43
2017-09-06T07:53:57.522Z,2.93
2017-09-06T07:56:25.153Z,2.90
2017-09-06T07:58:52.613Z,3.27
2017-09-06T08:01:20.053Z,3.73
2017-09-06T08:03:47.465Z,2.67
2017-09-06T08:06:14.976Z,3.13
2017-09-06T08:08:42.400Z,2.30
2017-09-06T08:11:09.901Z,3.40
2017-09-06T08:13:37.310Z,3.10
2017-09-06T08:16:04.748Z,2.90
2017-09-06T08:18:32.182Z,2.93
2017-09-06T08:20:59.729Z,1.97
2017-09-06T08:23:27.148Z,2.23
2017-09-06T08:25:54.579Z,3.10
2017-09-06T08:28:21.996Z,2.93
2017-09-06T08:30:49.424Z,2.60
2017-09-06T08:33:16.853Z,3.40
2017-09-06T08:35:44.368Z,4.07
2017-09-06T08:38:11.912Z,3.77
2017-09-06T08:40:39.349Z,3.00
2017-09-06T08:43:06.768Z,3.27
2017-09-06T08:45:34.283Z,2.57
2017-09-06T08:48:01.741Z,3.00
2017-09-06T08:50:29.173Z,2.63
2017-09-06T08:52:56.603Z,3.20
2017-09-06T08:55:24.035Z,3.17
2017-09-06T08:57:51.469Z,3.20
2017-09-06T09:00:18.944Z,3.33
2017-09-06T09:02:46.373Z,2.97
2017-09-06T09:05:13.840Z,3.03
2017-09-06T09:07:41.278Z,2.40
2017-09-06T09:10:08.780Z,2.77
2017-09-06T09:12:36.297Z,1.90
2017-09-06T09:15:03.712Z,2.07
2017-09-06T09:17:31.137Z,2.50
2017-09-06T09:19:58.573Z,2.03
2017-09-06T09:22:26.020Z,2.57
2017-09-06T09:24:53.440Z,1.63
2017-09-06T09:27:20.943Z,1.43
2017-09-06T09:29:48.407Z,1.90
2017-09-06T09:32:15.953Z,2.30
2017-09-06T09:34:43.409Z,3.23
2017-09-06T09:37:10.885Z,3.90
2017-09-06T09:39:38.632Z,2.63
2017-09-06T09:42:06.081Z,2.27
2017-09-06T09:44:33.513Z,2.80
2017-09-06T09:47:00.943Z,2.37
2017-09-06T09:49:28.369Z,2.13
2017-09-06T09:51:55.831Z,2.17
2017-09-06T09:54:23.249Z,2.30
2017-09-06T09:56:50.828Z,2.00
2017-09-06T09:59:18.469Z,2.63
2017-09-06T10:01:46.021Z,3.13
2017-09-06T10:04:13.444Z,3.03
2017-09-06T10:06:40.973Z,3.20
2017-09-06T10:09:08.424Z,2.63
2017-09-06T10:11:35.872Z,2.87
2017-09-06T10:14:03.512Z,4.90
2017-09-06T10:16:30.958Z,3.20
2017-09-06T10:18:58.543Z,2.10
2017-09-06T10:21:26.001Z,2.57
2017-09-06T10:23:53.463Z,2.63
2017-09-06T10:26:21.223Z,2.53
2017-09-06T10:28:48.651Z,2.87
2017-09-06T10:31:16.130Z,2.23
2017-09-06T10:33:43.601Z,2.83
2017-09-06T10:36:11.371Z,2.30
2017-09-06T10:38:38.812Z,2.63
2017-09-06T10:41:06.261Z,2.70
2017-09-06T10:43:33.693Z,2.90
2017-09-06T10:46:01.223Z,2.67
2017-09-06T10:48:28.957Z,2.67
2017-09-06T10:50:56.495Z,2.40
2017-09-06T10:53:24.111Z,2.30
2017-09-06T10:55:51.523Z,2.70
2017-09-06T10:58:18.962Z,2.67
2017-09-06T11:00:46.534Z,3.07
2017-09-06T11:03:14.175Z,2.30
2017-09-06T11:05:41.745Z,2.30
2017-09-06T11:08:09.164Z,2.23
2017-09-06T11:10:36.600Z,2.60
2017-09-06T11:13:04.060Z,2.23
2017-09-06T11:15:31.572Z,2.53
2017-09-06T11:17:59.014Z,2.90
2017-09-06T11:20:26.481Z,2.70
2017-09-06T11:22:53.916Z,2.87
2017-09-06T11:25:21.396Z,2.63
2017-09-06T11:27:48.813Z,3.20
2017-09-06T11:30:16.309Z,2.70
2017-09-06T11:32:43.762Z,2.60
2017-09-06T11:35:11.245Z,2.20
2017-09-06T11:37:38.853Z,2.70
2017-09-06T11:40:06.445Z,2.23
2017-09-06T11:42:33.907Z,2.10
2017-09-06T11:45:01.368Z,2.43
2017-09-06T11:47:28.760Z,2.80
2017-09-06T11:49:56.197Z,2.07
2017-09-06T11:52:23.632Z,2.50
2017-09-06T11:54:51.178Z,2.30
2017-09-06T11:57:18.636Z,2.33
2017-09-06T11:59:46.066Z,2.67
2017-09-06T12:02:13.548Z,3.03
2017-09-06T12:04:41.011Z,2.90
2017-09-06T12:07:08.432Z,1.97
2017-09-06T12:09:35.873Z,2.90
2017-09-06T12:12:03.305Z,2.67
2017-09-06T12:14:30.728Z,2.60
2017-09-06T12:16:58.210Z,2.80
2017-09-06T12:19:25.645Z,2.83
2017-09-06T12:21:53.206Z,3.53
2017-09-06T12:24:20.833Z,2.90
2017-09-06T12:26:48.437Z,3.37
2017-09-06T12:29:15.847Z,3.20
2017-09-06T12:31:43.329Z,3.47
2017-09-06T12:34:10.755Z,4.20
2017-09-06T12:36:38.186Z,3.70
2017-09-06T12:39:05.607Z,3.60
2017-09-06T12:41:33.129Z,3.67
2017-09-06T12:44:00.609Z,3.93
2017-09-06T12:46:28.058Z,3.17
2017-09-06T12:48:55.529Z,2.53
2017-09-06T12:51:22.995Z,2.60
2017-09-06T12:53:50.608Z,3.20
2017-09-06T12:56:18.044Z,2.37
2017-09-06T12:58:45.462Z,3.47
2017-09-06T13:01:13.125Z,3.00
2017-09-06T13:03:40.560Z,3.63
2017-09-06T13:06:07.999Z,3.00
2017-09-06T13:08:35.419Z,2.87
2017-09-06T13:11:02.866Z,2.50
2017-09-06T13:13:30.272Z,3.13
2017-09-06T13:15:57.852Z,2.30
2017-09-06T13:18:25.308Z,2.37
2017-09-06T13:20:52.731Z,2.47
2017-09-06T13:23:20.217Z,2.80
2017-09-06T13:25:47.691Z,3.00
2017-09-06T13:28:15.316Z,3.30
2017-09-06T13:30:42.760Z,2.83
2017-09-06T13:33:10.269Z,2.77
2017-09-06T13:35:37.718Z,3.40
2017-09-06T13:38:05.260Z,2.43
2017-09-06T13:40:32.721Z,3.57
2017-09-06T13:43:00.469Z,2.37
2017-09-06T13:45:27.940Z,2.70
2017-09-06T13:47:55.389Z,3.20
2017-09-06T13:50:22.853Z,2.90
2017-09-06T13:52:51.100Z,2.80
2017-09-06T13:55:18.560Z,3.47
2017-09-06T13:57:46.060Z,2.20
2017-09-06T14:00:13.481Z,3.27
2017-09-06T14:02:41.085Z,2.63
2017-09-06T14:05:08.673Z,2.67
2017-09-06T14:07:36.189Z,2.77
2017-09-06T14:10:03.635Z,3.00
2017-09-06T14:12:31.180Z,2.30
2017-09-06T14:14:58.649Z,3.20
2017-09-06T14:17:26.272Z,2.70
2017-09-06T14:19:53.725Z,2.93
2017-09-06T14:22:21.150Z,2.70
2017-09-06T14:24:48.642Z,3.60
2017-09-06T14:27:16.145Z,2.47
2017-09-06T14:29:43.569Z,3.00
2017-09-06T14:32:11.072Z,2.53
2017-09-06T14:34:38.509Z,3.00
2017-09-06T14:37:05.928Z,3.07
2017-09-06T14:39:33.504Z,3.30
2017-09-06T14:42:00.936Z,2.70
2017-09-06T14:44:28.352Z,3.03
2017-09-06T14:46:56.286Z,2.63
2017-09-06T14:49:23.858Z,2.83
2017-09-06T14:51:51.400Z,3.00
2017-09-06T14:54:18.877Z,2.70
2017-09-06T14:56:46.485Z,3.30
2017-09-06T14:59:13.992Z,2.20
2017-09-06T15:01:41.541Z,2.80
2017-09-06T15:04:08.964Z,3.20
2017-09-06T15:06:36.393Z,2.37
2017-09-06T15:09:03.818Z,2.73
2017-09-06T15:11:31.362Z,2.40
2017-09-06T15:13:58.793Z,2.90
2017-09-06T15:16:26.208Z,2.70
2017-09-06T15:18:53.736Z,3.00
2017-09-06T15:21:21.188Z,2.90
2017-09-06T15:23:48.674Z,2.13
2017-09-06T15:26:16.072Z,2.27
2017-09-06T15:28:43.505Z,2.80
2017-09-06T15:31:10.928Z,2.63
2017-09-06T15:33:38.870Z,2.63
2017-09-06T15:36:06.433Z,3.53
2017-09-06T15:38:33.995Z,2.80
2017-09-06T15:41:01.463Z,2.73
2017-09-06T15:43:28.979Z,3.77
2017-09-06T15:45:56.668Z,3.07
2017-09-06T15:48:24.118Z,2.60
2017-09-06T15:50:51.533Z,2.47
2017-09-06T15:53:18.975Z,2.33
2017-09-06T15:55:46.447Z,2.67
2017-09-06T15:58:13.878Z,2.27
2017-09-06T16:05:14.035Z,2.83
2017-09-06T16:07:41.577Z,2.73
2017-09-06T16:10:09.011Z,2.30
2017-09-06T16:12:36.436Z,3.53
2017-09-06T16:15:04.022Z,2.40
2017-09-06T16:17:31.593Z,2.27
2017-09-06T16:19:59.251Z,2.63
2017-09-06T16:22:26.672Z,3.13
2017-09-06T16:24:54.089Z,3.33
2017-09-06T16:27:21.632Z,2.47
2017-09-06T16:29:49.251Z,3.23
2017-09-06T16:32:16.685Z,2.20
2017-09-06T16:34:44.111Z,1.87
2017-09-06T16:37:11.559Z,1.80
2017-09-06T16:39:38.981Z,2.40
2017-09-06T16:42:06.605Z,2.10
2017-09-06T16:44:34.044Z,2.93
2017-09-06T16:47:01.467Z,3.10
2017-09-06T16:49:29.032Z,3.60
2017-09-06T16:51:56.449Z,2.70
2017-09-06T16:54:23.874Z,2.47
2017-09-06T16:56:51.306Z,3.00
2017-09-06T16:59:18.768Z,2.67
2017-09-06T17:01:47.236Z,3.00
2017-09-06T17:04:14.997Z,3.77
2017-09-06T17:06:42.424Z,3.23
2017-09-06T17:09:09.903Z,2.63
2017-09-06T17:11:37.331Z,3.10
2017-09-06T17:14:04.764Z,5.30
2017-09-06T17:16:32.197Z,2.57
2017-09-06T17:18:59.656Z,2.70
2017-09-06T17:21:27.089Z,2.83
2017-09-06T17:23:54.565Z,2.40
2017-09-06T17:26:22.101Z,2.60
2017-09-06T17:28:49.546Z,2.87
2017-09-06T17:31:17.016Z,2.27
2017-09-06T17:33:44.429Z,2.37
2017-09-06T17:36:11.852Z,2.93
2017-09-06T17:38:39.384Z,3.07
2017-09-06T17:41:06.817Z,3.60
2017-09-06T17:43:34.297Z,3.50
2017-09-06T17:46:01.720Z,2.63
2017-09-06T17:48:29.211Z,2.23
2017-09-06T17:50:56.642Z,3.83
2017-09-06T17:53:24.119Z,3.23
2017-09-06T17:55:51.553Z,2.70
2017-09-06T17:58:19.025Z,2.97
2017-09-06T18:00:46.488Z,2.50
2017-09-06T18:03:13.920Z,2.77
2017-09-06T18:05:41.345Z,2.63
2017-09-06T18:08:08.856Z,4.00
2017-09-06T18:10:36.285Z,3.00
2017-09-06T18:13:03.700Z,2.97
2017-09-06T18:15:31.124Z,4.57
2017-09-06T18:17:58.684Z,2.80
2017-09-06T18:20:26.136Z,2.50
2017-09-06T18:22:53.610Z,2.97
2017-09-06T18:25:21.021Z,4.20
2017-09-06T18:27:48.511Z,3.07
2017-09-06T18:30:15.933Z,3.47
2017-09-06T18:32:43.423Z,2.43
2017-09-06T18:35:10.872Z,2.70
2017-09-06T18:37:38.330Z,2.30
2017-09-06T18:40:05.748Z,2.57
2017-09-06T18:42:33.176Z,2.80
2017-09-06T18:45:00.700Z,3.07
2017-09-06T18:47:28.160Z,3.10
2017-09-06T18:49:55.621Z,3.00
2017-09-06T18:52:23.076Z,3.20
2017-09-06T18:54:50.553Z,2.93
2017-09-06T18:57:17.988Z,3.53
2017-09-06T18:59:45.765Z,3.37
2017-09-06T19:02:13.384Z,4.30
2017-09-06T19:04:40.880Z,3.73
2017-09-06T19:07:08.441Z,3.07
2017-09-06T19:09:35.882Z,3.77
2017-09-06T19:12:03.349Z,2.80
2017-09-06T19:14:30.914Z,2.90
2017-09-06T19:16:58.425Z,2.60
2017-09-06T19:19:26.037Z,3.10
2017-09-06T19:21:53.499Z,3.43
2017-09-06T19:24:21.233Z,3.37
2017-09-06T19:26:48.655Z,3.50
2017-09-06T19:29:16.138Z,3.70
2017-09-06T19:31:43.568Z,2.90
2017-09-06T19:34:11.028Z,4.10
2017-09-06T19:36:38.432Z,3.30
2017-09-06T19:39:05.909Z,3.07
2017-09-06T19:41:33.385Z,3.10
2017-09-06T19:44:00.788Z,3.80
2017-09-06T19:46:28.338Z,3.17
2017-09-06T19:48:56.109Z,3.47
2017-09-06T19:51:23.534Z,3.30
2017-09-06T19:53:50.984Z,3.17
2017-09-06T19:56:18.480Z,3.07
2017-09-06T19:58:46.107Z,3.80
2017-09-06T20:01:13.704Z,3.60
2017-09-06T20:03:41.432Z,3.00
2017-09-06T20:06:08.871Z,3.27
2017-09-06T20:08:36.305Z,3.60
2017-09-06T20:11:03.739Z,2.80
2017-09-06T20:13:31.276Z,3.80
2017-09-06T20:15:58.703Z,3.20
2017-09-06T20:18:26.188Z,3.10
2017-09-06T20:20:53.624Z,4.17
2017-09-06T20:23:21.044Z,4.37
2017-09-06T20:25:48.471Z,2.30
2017-09-06T20:28:16.016Z,3.17
2017-09-06T20:30:43.444Z,4.20
2017-09-06T20:33:10.933Z,2.60
2017-09-06T20:35:38.364Z,2.80
2017-09-06T20:38:05.807Z,3.47
2017-09-06T20:40:33.294Z,2.73
2017-09-06T20:43:00.716Z,3.77
2017-09-06T20:45:28.212Z,3.07
2017-09-06T20:47:55.636Z,3.17
2017-09-06T20:50:23.082Z,3.20
2017-09-06T20:52:50.501Z,4.20
2017-09-06T20:55:18.036Z,3.90
2017-09-06T20:57:45.684Z,3.10
2017-09-06T21:00:13.250Z,5.27
2017-09-06T21:02:40.678Z,4.30
2017-09-06T21:05:08.161Z,3.70
2017-09-06T21:07:35.612Z,3.37
2017-09-06T21:10:03.026Z,4.23
2017-09-06T21:12:30.452Z,4.43
2017-09-06T21:14:57.992Z,3.07
2017-09-06T21:17:25.640Z,3.30
2017-09-06T21:19:53.079Z,3.57
2017-09-06T21:22:20.664Z,3.63
2017-09-06T21:24:48.097Z,3.47
2017-09-06T21:27:15.569Z,5.20
2017-09-06T21:29:42.998Z,3.70
2017-09-06T21:32:10.709Z,4.63
2017-09-06T21:34:38.115Z,3.30
2017-09-06T21:37:05.704Z,4.43
2017-09-06T21:39:33.169Z,4.43
2017-09-06T21:42:00.605Z,3.60
2017-09-06T21:44:28.071Z,2.90
2017-09-06T21:46:55.509Z,4.60
2017-09-06T21:49:22.930Z,3.70
2017-09-06T21:51:50.448Z,2.97
2017-09-06T21:54:17.896Z,3.43
2017-09-06T21:56:45.337Z,3.43
2017-09-06T21:59:12.816Z,2.87
2017-09-06T22:01:40.224Z,4.20
2017-09-06T22:04:07.736Z,5.77
2017-09-06T22:06:35.180Z,4.00
2017-09-06T22:09:02.614Z,3.57
2017-09-06T22:11:30.114Z,4.43
2017-09-06T22:13:57.849Z,6.10
2017-09-06T22:16:25.270Z,3.90
2017-09-06T22:18:52.691Z,4.53
2017-09-06T22:21:20.229Z,3.57
2017-09-06T22:23:47.657Z,4.00
2017-09-06T22:26:15.069Z,3.73
2017-09-06T22:28:42.529Z,3.60
2017-09-06T22:31:10.045Z,3.87
2017-09-06T22:33:37.516Z,4.13
2017-09-06T22:36:04.968Z,3.47
2017-09-06T22:38:32.416Z,3.50
2017-09-06T22:40:59.888Z,3.93
2017-09-06T22:43:27.304Z,4.43
2017-09-06T22:45:54.816Z,3.43
2017-09-06T22:48:22.241Z,4.40
2017-09-06T22:50:49.704Z,3.33
2017-09-06T22:53:17.156Z,3.30
2017-09-06T22:55:44.580Z,4.90
2017-09-06T22:58:12.073Z,4.03
2017-09-06T23:00:39.495Z,3.70
2017-09-06T23:03:06.912Z,4.40
2017-09-06T23:05:34.436Z,3.97
2017-09-06T23:08:01.856Z,3.20
2017-09-06T23:10:29.364Z,4.00
2017-09-06T23:12:57.003Z,3.67
2017-09-06T23:15:24.454Z,3.10
2017-09-06T23:17:51.893Z,3.93
2017-09-06T23:20:19.490Z,3.67
2017-09-06T23:22:46.940Z,3.83
2017-09-06T23:25:14.360Z,3.60
2017-09-06T23:27:41.855Z,3.03
2017-09-06T23:30:09.307Z,3.60
2017-09-06T23:32:36.765Z,3.90
2017-09-06T23:35:04.197Z,4.37
2017-09-06T23:37:31.608Z,3.90
2017-09-06T23:39:59.053Z,4.27
2017-09-06T23:42:26.513Z,6.10
2017-09-06T23:44:54.056Z,3.97
2017-09-06T23:47:21.497Z,4.40
2017-09-06T23:49:48.954Z,4.40
2017-09-06T23:52:16.389Z,3.93
2017-09-06T23:54:43.796Z,4.67
2017-09-06T23:57:11.332Z,3.13
2017-09-06T23:59:38.785Z,3.30
